Skip Navigation Linkswww.weather.gov 
NOAA logo - Click to go to the NOAA homepage National Weather Service Forecast Office   NWS logo - Click to go to the NWS homepage    
Pocatello, Idaho
navigation bar decoration      
spacer

Forecast for Pocatello

Printer Friendly Version Printer Friendly Version | Plain Text Version Plain Text Version

Pocatello Terminal Forecast

KPIH 290520Z 2906/3006 21010KT P6SM SCT250
      FM292100 25012G18KT P6SM SKC
      FM300200 20007KT P6SM SKC=
Recent Pocatello Observations
 KPIH 290553Z AUTO 21012KT 10SM CLR 07/M07 A3029 AO2 SLP241  T00671067 10139 20067 51020
 KPIH 290453Z AUTO 21014KT 10SM CLR 07/M07 A3028 AO2 SLP234  T00721072
 KPIH 290353Z 22013KT 10SM CLR 08/M07 A3027 AO2 PK WND  24028/0255 SLP233 T00781072
Adjacent Observations
 KIDA 290553Z AUTO 21011KT 10SM CLR 06/M06 A3029 AO2 SLP242  T00611061 10156 20061 51029

Webmaster
US Dept of Commerce
National Oceanic and Atmospheric Administration
National Weather Service
Pocatello Weather Forecast Office
1945 Beechcraft Ave
Pocatello, ID 83204

Tel: (208) 233-0834
Recorded Forecast: (208) 233-0137

Disclaimer
Information Quality
Credits
Glossary
Organization
Privacy Policy
Freedom of Information Act
About Us
Career Opportunities